sensor_id;sensor_type;location;lat;lon;timestamp;P1;durP1;ratioP1;P2;durP2;ratioP2
23046;SDS011;11691;51.462;6.902;2023-03-01T00:01:03;11.20;;;6.27;;
23046;SDS011;11691;51.462;6.902;2023-03-01T00:03:30;10.13;;;6.00;;
23046;SDS011;11691;51.462;6.902;2023-03-01T00:05:56;10.13;;;7.13;;
23046;SDS011;11691;51.462;6.902;2023-03-01T00:08:22;11.73;;;6.80;;
23046;SDS011;11691;51.462;6.902;2023-03-01T00:10:48;10.27;;;6.10;;
23046;SDS011;11691;51.462;6.902;2023-03-01T00:13:14;9.80;;;6.07;;
23046;SDS011;11691;51.462;6.902;2023-03-01T00:15:40;13.17;;;6.93;;
23046;SDS011;11691;51.462;6.902;2023-03-01T00:18:07;12.97;;;6.43;;
23046;SDS011;11691;51.462;6.902;2023-03-01T00:20:33;14.10;;;6.67;;
23046;SDS011;11691;51.462;6.902;2023-03-01T00:22:59;10.67;;;6.97;;
23046;SDS011;11691;51.462;6.902;2023-03-01T00:25:25;13.30;;;6.60;;
23046;SDS011;11691;51.462;6.902;2023-03-01T00:27:51;15.00;;;6.57;;
23046;SDS011;11691;51.462;6.902;2023-03-01T00:30:17;10.87;;;6.53;;
23046;SDS011;11691;51.462;6.902;2023-03-01T00:32:43;11.07;;;6.93;;
23046;SDS011;11691;51.462;6.902;2023-03-01T00:35:09;9.37;;;6.50;;
23046;SDS011;11691;51.462;6.902;2023-03-01T00:37:35;10.60;;;6.60;;
23046;SDS011;11691;51.462;6.902;2023-03-01T00:40:01;11.73;;;6.00;;
23046;SDS011;11691;51.462;6.902;2023-03-01T00:42:31;9.70;;;6.37;;
23046;SDS011;11691;51.462;6.902;2023-03-01T00:44:57;10.67;;;6.67;;
23046;SDS011;11691;51.462;6.902;2023-03-01T00:47:22;9.87;;;6.03;;
23046;SDS011;11691;51.462;6.902;2023-03-01T00:49:48;10.63;;;6.47;;
23046;SDS011;11691;51.462;6.902;2023-03-01T00:52:14;9.20;;;6.40;;
23046;SDS011;11691;51.462;6.902;2023-03-01T00:54:40;9.07;;;6.23;;
23046;SDS011;11691;51.462;6.902;2023-03-01T00:57:06;11.87;;;6.27;;
23046;SDS011;11691;51.462;6.902;2023-03-01T00:59:32;9.37;;;5.97;;
23046;SDS011;11691;51.462;6.902;2023-03-01T01:01:58;9.20;;;6.67;;
23046;SDS011;11691;51.462;6.902;2023-03-01T01:04:24;11.63;;;6.77;;
23046;SDS011;11691;51.462;6.902;2023-03-01T01:06:50;13.27;;;6.60;;
23046;SDS011;11691;51.462;6.902;2023-03-01T01:09:16;10.63;;;6.60;;
23046;SDS011;11691;51.462;6.902;2023-03-01T01:11:45;11.47;;;7.40;;
23046;SDS011;11691;51.462;6.902;2023-03-01T01:14:12;12.80;;;6.40;;
23046;SDS011;11691;51.462;6.902;2023-03-01T01:16:38;12.80;;;7.00;;
23046;SDS011;11691;51.462;6.902;2023-03-01T01:19:04;10.43;;;7.03;;
23046;SDS011;11691;51.462;6.902;2023-03-01T01:21:30;10.67;;;7.07;;
23046;SDS011;11691;51.462;6.902;2023-03-01T01:23:56;11.77;;;6.90;;
23046;SDS011;11691;51.462;6.902;2023-03-01T01:26:26;12.20;;;6.83;;
23046;SDS011;11691;51.462;6.902;2023-03-01T01:28:56;13.77;;;6.97;;
23046;SDS011;11691;51.462;6.902;2023-03-01T01:31:22;11.07;;;6.50;;
23046;SDS011;11691;51.462;6.902;2023-03-01T01:33:49;8.97;;;6.40;;
23046;SDS011;11691;51.462;6.902;2023-03-01T01:36:15;8.07;;;5.97;;
23046;SDS011;11691;51.462;6.902;2023-03-01T01:38:41;10.37;;;6.67;;
23046;SDS011;11691;51.462;6.902;2023-03-01T01:41:08;11.70;;;7.00;;
23046;SDS011;11691;51.462;6.902;2023-03-01T01:43:37;11.40;;;6.37;;
23046;SDS011;11691;51.462;6.902;2023-03-01T01:48:54;9.73;;;6.20;;
23046;SDS011;11691;51.462;6.902;2023-03-01T01:51:39;11.50;;;7.17;;
23046;SDS011;11691;51.462;6.902;2023-03-01T01:54:10;10.87;;;6.73;;
23046;SDS011;11691;51.462;6.902;2023-03-01T01:56:42;14.07;;;7.33;;
23046;SDS011;11691;51.462;6.902;2023-03-01T01:59:10;12.83;;;7.27;;
23046;SDS011;11691;51.462;6.902;2023-03-01T02:01:36;11.40;;;7.30;;
23046;SDS011;11691;51.462;6.902;2023-03-01T02:04:03;12.50;;;7.97;;
23046;SDS011;11691;51.462;6.902;2023-03-01T02:06:32;13.00;;;6.80;;
23046;SDS011;11691;51.462;6.902;2023-03-01T02:09:04;14.80;;;7.27;;
23046;SDS011;11691;51.462;6.902;2023-03-01T02:11:33;11.93;;;8.17;;
23046;SDS011;11691;51.462;6.902;2023-03-01T02:13:59;14.10;;;7.73;;
23046;SDS011;11691;51.462;6.902;2023-03-01T02:16:26;11.90;;;7.10;;
23046;SDS011;11691;51.462;6.902;2023-03-01T02:18:51;12.60;;;7.13;;
23046;SDS011;11691;51.462;6.902;2023-03-01T02:24:05;10.70;;;7.23;;
23046;SDS011;11691;51.462;6.902;2023-03-01T02:26:53;11.27;;;7.10;;
23046;SDS011;11691;51.462;6.902;2023-03-01T02:29:21;12.53;;;7.47;;
23046;SDS011;11691;51.462;6.902;2023-03-01T02:31:48;13.80;;;7.23;;
23046;SDS011;11691;51.462;6.902;2023-03-01T02:34:17;12.67;;;7.90;;
23046;SDS011;11691;51.462;6.902;2023-03-01T02:36:48;11.83;;;7.57;;
23046;SDS011;11691;51.462;6.902;2023-03-01T02:39:20;11.67;;;7.57;;
23046;SDS011;11691;51.462;6.902;2023-03-01T02:41:51;13.00;;;6.73;;
23046;SDS011;11691;51.462;6.902;2023-03-01T02:44:17;12.77;;;7.50;;
23046;SDS011;11691;51.462;6.902;2023-03-01T02:46:45;11.63;;;7.27;;
23046;SDS011;11691;51.462;6.902;2023-03-01T02:49:26;12.20;;;7.03;;
23046;SDS011;11691;51.462;6.902;2023-03-01T02:57:05;9.57;;;6.57;;
23046;SDS011;11691;51.462;6.902;2023-03-01T02:59:31;13.17;;;7.27;;
23046;SDS011;11691;51.462;6.902;2023-03-01T03:02:04;10.43;;;7.50;;
23046;SDS011;11691;51.462;6.902;2023-03-01T03:04:30;12.37;;;7.13;;
23046;SDS011;11691;51.462;6.902;2023-03-01T03:06:56;10.67;;;6.80;;
23046;SDS011;11691;51.462;6.902;2023-03-01T03:09:22;10.90;;;6.97;;
23046;SDS011;11691;51.462;6.902;2023-03-01T03:11:49;9.97;;;7.03;;
23046;SDS011;11691;51.462;6.902;2023-03-01T03:14:15;12.50;;;7.23;;
23046;SDS011;11691;51.462;6.902;2023-03-01T03:19:08;15.03;;;7.77;;
23046;SDS011;11691;51.462;6.902;2023-03-01T03:21:34;14.37;;;7.77;;
23046;SDS011;11691;51.462;6.902;2023-03-01T03:24:00;13.73;;;7.67;;
23046;SDS011;11691;51.462;6.902;2023-03-01T03:26:26;15.13;;;7.60;;
23046;SDS011;11691;51.462;6.902;2023-03-01T03:28:52;12.83;;;7.20;;
23046;SDS011;11691;51.462;6.902;2023-03-01T03:31:18;11.90;;;6.93;;
23046;SDS011;11691;51.462;6.902;2023-03-01T03:33:44;13.73;;;7.73;;
23046;SDS011;11691;51.462;6.902;2023-03-01T03:36:15;13.83;;;7.53;;
23046;SDS011;11691;51.462;6.902;2023-03-01T03:38:42;10.20;;;7.07;;
23046;SDS011;11691;51.462;6.902;2023-03-01T03:41:08;12.07;;;7.67;;
23046;SDS011;11691;51.462;6.902;2023-03-01T03:43:36;12.57;;;7.67;;
23046;SDS011;11691;51.462;6.902;2023-03-01T03:46:04;10.97;;;7.30;;
23046;SDS011;11691;51.462;6.902;2023-03-01T03:48:33;13.97;;;8.03;;
23046;SDS011;11691;51.462;6.902;2023-03-01T03:51:00;13.13;;;7.30;;
23046;SDS011;11691;51.462;6.902;2023-03-01T03:53:27;11.80;;;7.30;;
23046;SDS011;11691;51.462;6.902;2023-03-01T03:55:53;11.83;;;7.80;;
23046;SDS011;11691;51.462;6.902;2023-03-01T03:58:20;13.90;;;7.20;;
23046;SDS011;11691;51.462;6.902;2023-03-01T04:00:46;10.67;;;7.63;;
23046;SDS011;11691;51.462;6.902;2023-03-01T04:03:14;12.37;;;8.07;;
23046;SDS011;11691;51.462;6.902;2023-03-01T04:05:41;12.87;;;7.67;;
23046;SDS011;11691;51.462;6.902;2023-03-01T04:08:07;11.03;;;7.17;;
23046;SDS011;11691;51.462;6.902;2023-03-01T04:10:41;13.37;;;8.33;;
23046;SDS011;11691;51.462;6.902;2023-03-01T04:13:09;10.53;;;6.80;;
23046;SDS011;11691;51.462;6.902;2023-03-01T04:15:36;13.43;;;8.10;;
23046;SDS011;11691;51.462;6.902;2023-03-01T04:18:02;13.90;;;8.00;;
23046;SDS011;11691;51.462;6.902;2023-03-01T04:20:29;12.50;;;7.87;;
23046;SDS011;11691;51.462;6.902;2023-03-01T04:22:59;12.20;;;7.37;;
23046;SDS011;11691;51.462;6.902;2023-03-01T04:25:35;12.33;;;7.10;;
23046;SDS011;11691;51.462;6.902;2023-03-01T04:28:01;9.83;;;7.07;;
23046;SDS011;11691;51.462;6.902;2023-03-01T04:30:27;12.43;;;8.03;;
23046;SDS011;11691;51.462;6.902;2023-03-01T04:32:53;12.57;;;7.80;;
23046;SDS011;11691;51.462;6.902;2023-03-01T04:35:19;14.60;;;7.80;;
23046;SDS011;11691;51.462;6.902;2023-03-01T04:37:45;11.17;;;7.73;;
23046;SDS011;11691;51.462;6.902;2023-03-01T04:40:11;12.13;;;7.57;;
23046;SDS011;11691;51.462;6.902;2023-03-01T04:42:40;12.57;;;8.23;;
23046;SDS011;11691;51.462;6.902;2023-03-01T04:45:07;12.47;;;7.63;;
23046;SDS011;11691;51.462;6.902;2023-03-01T04:47:41;12.07;;;8.00;;
23046;SDS011;11691;51.462;6.902;2023-03-01T04:50:11;11.93;;;7.67;;
23046;SDS011;11691;51.462;6.902;2023-03-01T04:52:39;13.00;;;7.50;;
23046;SDS011;11691;51.462;6.902;2023-03-01T04:55:05;12.93;;;7.80;;
23046;SDS011;11691;51.462;6.902;2023-03-01T04:57:32;14.63;;;7.90;;
23046;SDS011;11691;51.462;6.902;2023-03-01T04:59:58;14.27;;;8.13;;
23046;SDS011;11691;51.462;6.902;2023-03-01T05:02:24;12.40;;;7.83;;
23046;SDS011;11691;51.462;6.902;2023-03-01T05:04:50;13.37;;;8.57;;
23046;SDS011;11691;51.462;6.902;2023-03-01T05:07:16;14.50;;;7.53;;
23046;SDS011;11691;51.462;6.902;2023-03-01T05:09:46;14.00;;;8.10;;
23046;SDS011;11691;51.462;6.902;2023-03-01T05:12:12;14.17;;;7.77;;
23046;SDS011;11691;51.462;6.902;2023-03-01T05:14:38;14.47;;;7.73;;
23046;SDS011;11691;51.462;6.902;2023-03-01T05:17:05;10.73;;;7.87;;
23046;SDS011;11691;51.462;6.902;2023-03-01T05:19:31;14.93;;;9.00;;
23046;SDS011;11691;51.462;6.902;2023-03-01T05:21:58;14.13;;;8.33;;
23046;SDS011;11691;51.462;6.902;2023-03-01T05:24:28;17.93;;;8.50;;
23046;SDS011;11691;51.462;6.902;2023-03-01T05:26:55;17.50;;;8.33;;
23046;SDS011;11691;51.462;6.902;2023-03-01T05:29:21;13.03;;;8.17;;
23046;SDS011;11691;51.462;6.902;2023-03-01T05:31:59;14.10;;;8.53;;
23046;SDS011;11691;51.462;6.902;2023-03-01T05:34:32;13.40;;;8.37;;
23046;SDS011;11691;51.462;6.902;2023-03-01T05:36:59;14.67;;;8.43;;
23046;SDS011;11691;51.462;6.902;2023-03-01T05:39:26;13.17;;;8.17;;
23046;SDS011;11691;51.462;6.902;2023-03-01T05:41:53;13.33;;;7.17;;
23046;SDS011;11691;51.462;6.902;2023-03-01T05:44:20;14.70;;;8.57;;
23046;SDS011;11691;51.462;6.902;2023-03-01T05:46:46;12.30;;;8.50;;
23046;SDS011;11691;51.462;6.902;2023-03-01T05:49:14;13.23;;;8.20;;
23046;SDS011;11691;51.462;6.902;2023-03-01T05:51:40;15.00;;;8.57;;
23046;SDS011;11691;51.462;6.902;2023-03-01T05:54:07;14.63;;;8.00;;
23046;SDS011;11691;51.462;6.902;2023-03-01T05:56:34;14.30;;;8.37;;
23046;SDS011;11691;51.462;6.902;2023-03-01T05:59:00;12.67;;;8.43;;
23046;SDS011;11691;51.462;6.902;2023-03-01T06:01:27;12.87;;;8.67;;
23046;SDS011;11691;51.462;6.902;2023-03-01T06:03:53;16.93;;;8.57;;
23046;SDS011;11691;51.462;6.902;2023-03-01T06:06:19;14.80;;;8.57;;
23046;SDS011;11691;51.462;6.902;2023-03-01T06:08:45;13.27;;;8.40;;
23046;SDS011;11691;51.462;6.902;2023-03-01T06:11:11;17.83;;;8.97;;
23046;SDS011;11691;51.462;6.902;2023-03-01T06:13:37;14.97;;;8.43;;
23046;SDS011;11691;51.462;6.902;2023-03-01T06:16:06;14.67;;;7.77;;
23046;SDS011;11691;51.462;6.902;2023-03-01T06:18:32;13.17;;;7.90;;
23046;SDS011;11691;51.462;6.902;2023-03-01T06:20:58;12.83;;;8.13;;
23046;SDS011;11691;51.462;6.902;2023-03-01T06:23:24;13.47;;;8.40;;
23046;SDS011;11691;51.462;6.902;2023-03-01T06:25:51;14.87;;;8.53;;
23046;SDS011;11691;51.462;6.902;2023-03-01T06:28:17;13.93;;;8.37;;
23046;SDS011;11691;51.462;6.902;2023-03-01T06:30:43;12.37;;;7.97;;
23046;SDS011;11691;51.462;6.902;2023-03-01T06:33:09;15.83;;;8.40;;
23046;SDS011;11691;51.462;6.902;2023-03-01T06:35:35;11.93;;;8.07;;
23046;SDS011;11691;51.462;6.902;2023-03-01T06:38:02;13.80;;;7.90;;
23046;SDS011;11691;51.462;6.902;2023-03-01T06:40:28;14.17;;;8.20;;
23046;SDS011;11691;51.462;6.902;2023-03-01T06:42:56;15.20;;;8.97;;
23046;SDS011;11691;51.462;6.902;2023-03-01T06:45:22;14.37;;;8.80;;
23046;SDS011;11691;51.462;6.902;2023-03-01T06:47:48;14.53;;;8.77;;
23046;SDS011;11691;51.462;6.902;2023-03-01T06:50:14;13.80;;;7.63;;
23046;SDS011;11691;51.462;6.902;2023-03-01T06:52:40;14.30;;;8.37;;
23046;SDS011;11691;51.462;6.902;2023-03-01T06:55:06;13.17;;;8.43;;
23046;SDS011;11691;51.462;6.902;2023-03-01T06:57:32;16.10;;;8.10;;
23046;SDS011;11691;51.462;6.902;2023-03-01T06:59:58;16.67;;;9.03;;
23046;SDS011;11691;51.462;6.902;2023-03-01T07:02:24;17.07;;;9.20;;
23046;SDS011;11691;51.462;6.902;2023-03-01T07:04:51;14.77;;;8.70;;
23046;SDS011;11691;51.462;6.902;2023-03-01T07:07:17;14.70;;;8.73;;
23046;SDS011;11691;51.462;6.902;2023-03-01T07:09:43;14.73;;;9.10;;
23046;SDS011;11691;51.462;6.902;2023-03-01T07:12:09;17.53;;;9.20;;
23046;SDS011;11691;51.462;6.902;2023-03-01T07:14:35;12.77;;;8.13;;
23046;SDS011;11691;51.462;6.902;2023-03-01T07:17:02;16.03;;;8.20;;
23046;SDS011;11691;51.462;6.902;2023-03-01T07:19:28;15.57;;;8.97;;
23046;SDS011;11691;51.462;6.902;2023-03-01T07:21:54;16.10;;;8.67;;
23046;SDS011;11691;51.462;6.902;2023-03-01T07:24:20;13.50;;;9.03;;
23046;SDS011;11691;51.462;6.902;2023-03-01T07:26:50;15.63;;;9.50;;
23046;SDS011;11691;51.462;6.902;2023-03-01T07:29:16;14.93;;;9.30;;
23046;SDS011;11691;51.462;6.902;2023-03-01T07:31:43;12.57;;;8.27;;
23046;SDS011;11691;51.462;6.902;2023-03-01T07:34:09;13.73;;;8.47;;
23046;SDS011;11691;51.462;6.902;2023-03-01T07:36:35;15.70;;;9.03;;
23046;SDS011;11691;51.462;6.902;2023-03-01T07:39:01;14.17;;;8.47;;
23046;SDS011;11691;51.462;6.902;2023-03-01T07:41:28;14.60;;;8.97;;
23046;SDS011;11691;51.462;6.902;2023-03-01T07:43:54;14.73;;;9.07;;
23046;SDS011;11691;51.462;6.902;2023-03-01T07:46:20;18.47;;;8.57;;
23046;SDS011;11691;51.462;6.902;2023-03-01T07:48:46;18.83;;;9.23;;
23046;SDS011;11691;51.462;6.902;2023-03-01T07:51:12;13.70;;;8.63;;
23046;SDS011;11691;51.462;6.902;2023-03-01T07:53:38;11.43;;;8.03;;
23046;SDS011;11691;51.462;6.902;2023-03-01T07:56:05;15.83;;;8.90;;
23046;SDS011;11691;51.462;6.902;2023-03-01T07:58:36;15.77;;;8.90;;
23046;SDS011;11691;51.462;6.902;2023-03-01T08:01:06;12.60;;;7.87;;
23046;SDS011;11691;51.462;6.902;2023-03-01T08:03:32;16.17;;;9.13;;
23046;SDS011;11691;51.462;6.902;2023-03-01T08:05:59;14.67;;;7.47;;
23046;SDS011;11691;51.462;6.902;2023-03-01T08:08:26;13.23;;;8.13;;
23046;SDS011;11691;51.462;6.902;2023-03-01T08:10:52;13.53;;;8.07;;
23046;SDS011;11691;51.462;6.902;2023-03-01T08:13:18;12.97;;;7.90;;
23046;SDS011;11691;51.462;6.902;2023-03-01T08:15:47;14.70;;;8.00;;
23046;SDS011;11691;51.462;6.902;2023-03-01T08:18:14;13.67;;;7.67;;
23046;SDS011;11691;51.462;6.902;2023-03-01T08:20:40;12.30;;;7.90;;
23046;SDS011;11691;51.462;6.902;2023-03-01T08:23:06;11.33;;;7.00;;
23046;SDS011;11691;51.462;6.902;2023-03-01T08:25:32;10.47;;;7.00;;
23046;SDS011;11691;51.462;6.902;2023-03-01T08:27:58;11.10;;;6.97;;
23046;SDS011;11691;51.462;6.902;2023-03-01T08:30:24;9.87;;;6.43;;
23046;SDS011;11691;51.462;6.902;2023-03-01T08:32:50;13.73;;;7.07;;
23046;SDS011;11691;51.462;6.902;2023-03-01T08:35:16;9.33;;;6.70;;
23046;SDS011;11691;51.462;6.902;2023-03-01T08:37:42;10.30;;;6.23;;
23046;SDS011;11691;51.462;6.902;2023-03-01T08:40:08;10.07;;;6.77;;
23046;SDS011;11691;51.462;6.902;2023-03-01T08:42:35;10.67;;;7.03;;
23046;SDS011;11691;51.462;6.902;2023-03-01T08:45:02;12.47;;;7.43;;
23046;SDS011;11691;51.462;6.902;2023-03-01T08:47:28;8.87;;;5.93;;
23046;SDS011;11691;51.462;6.902;2023-03-01T08:49:54;9.17;;;6.20;;
23046;SDS011;11691;51.462;6.902;2023-03-01T08:52:20;8.67;;;6.30;;
23046;SDS011;11691;51.462;6.902;2023-03-01T08:54:47;14.37;;;6.83;;
23046;SDS011;11691;51.462;6.902;2023-03-01T08:57:13;15.03;;;6.73;;
23046;SDS011;11691;51.462;6.902;2023-03-01T08:59:39;12.27;;;6.87;;
23046;SDS011;11691;51.462;6.902;2023-03-01T09:02:06;10.50;;;6.87;;
23046;SDS011;11691;51.462;6.902;2023-03-01T09:04:39;9.13;;;6.27;;
23046;SDS011;11691;51.462;6.902;2023-03-01T09:07:05;11.63;;;6.57;;
23046;SDS011;11691;51.462;6.902;2023-03-01T09:09:31;11.43;;;6.25;;
23046;SDS011;11691;51.462;6.902;2023-03-01T09:11:57;10.63;;;6.60;;
23046;SDS011;11691;51.462;6.902;2023-03-01T09:14:23;10.00;;;6.45;;
23046;SDS011;11691;51.462;6.902;2023-03-01T09:16:49;9.68;;;6.32;;
23046;SDS011;11691;51.462;6.902;2023-03-01T09:19:15;10.55;;;6.25;;
23046;SDS011;11691;51.462;6.902;2023-03-01T09:21:41;10.23;;;6.28;;
23046;SDS011;11691;51.462;6.902;2023-03-01T09:24:17;9.52;;;6.07;;
23046;SDS011;11691;51.462;6.902;2023-03-01T09:26:43;8.95;;;6.45;;
23046;SDS011;11691;51.462;6.902;2023-03-01T09:29:12;12.38;;;6.03;;
23046;SDS011;11691;51.462;6.902;2023-03-01T09:31:39;9.65;;;6.28;;
23046;SDS011;11691;51.462;6.902;2023-03-01T09:34:05;9.18;;;6.07;;
23046;SDS011;11691;51.462;6.902;2023-03-01T09:36:32;9.00;;;5.82;;
23046;SDS011;11691;51.462;6.902;2023-03-01T09:38:58;8.82;;;5.63;;
23046;SDS011;11691;51.462;6.902;2023-03-01T09:46:45;11.27;;;6.35;;
23046;SDS011;11691;51.462;6.902;2023-03-01T09:49:21;8.88;;;5.88;;
23046;SDS011;11691;51.462;6.902;2023-03-01T09:51:56;10.23;;;5.68;;
23046;SDS011;11691;51.462;6.902;2023-03-01T09:54:23;9.20;;;5.70;;
23046;SDS011;11691;51.462;6.902;2023-03-01T10:00:22;13.10;;;5.40;;
23046;SDS011;11691;51.462;6.902;2023-03-01T10:02:40;8.45;;;5.75;;
23046;SDS011;11691;51.462;6.902;2023-03-01T10:05:18;9.43;;;5.55;;
23046;SDS011;11691;51.462;6.902;2023-03-01T10:10:26;7.68;;;5.43;;
23046;SDS011;11691;51.462;6.902;2023-03-01T10:12:56;9.75;;;5.90;;
23046;SDS011;11691;51.462;6.902;2023-03-01T10:15:27;8.38;;;5.43;;
23046;SDS011;11691;51.462;6.902;2023-03-01T10:18:12;10.00;;;5.80;;
23046;SDS011;11691;51.462;6.902;2023-03-01T10:23:31;8.82;;;6.15;;
23046;SDS011;11691;51.462;6.902;2023-03-01T10:31:13;7.13;;;5.60;;
23046;SDS011;11691;51.462;6.902;2023-03-01T10:33:40;7.45;;;5.38;;
23046;SDS011;11691;51.462;6.902;2023-03-01T10:36:07;7.80;;;5.53;;
23046;SDS011;11691;51.462;6.902;2023-03-01T10:38:49;9.35;;;5.57;;
23046;SDS011;11691;51.462;6.902;2023-03-01T10:41:23;8.45;;;5.80;;
23046;SDS011;11691;51.462;6.902;2023-03-01T10:43:53;7.40;;;5.18;;
23046;SDS011;11691;51.462;6.902;2023-03-01T10:51:33;7.75;;;5.07;;
23046;SDS011;11691;51.462;6.902;2023-03-01T10:53:59;7.35;;;5.07;;
23046;SDS011;11691;51.462;6.902;2023-03-01T10:56:25;7.75;;;4.85;;
23046;SDS011;11691;51.462;6.902;2023-03-01T10:59:04;7.80;;;4.75;;
23046;SDS011;11691;51.462;6.902;2023-03-01T11:01:40;6.63;;;4.78;;
23046;SDS011;11691;51.462;6.902;2023-03-01T11:06:36;7.10;;;4.78;;
23046;SDS011;11691;51.462;6.902;2023-03-01T11:09:19;6.63;;;4.55;;
23046;SDS011;11691;51.462;6.902;2023-03-01T11:11:45;9.68;;;5.05;;
23046;SDS011;11691;51.462;6.902;2023-03-01T11:14:16;5.65;;;4.32;;
23046;SDS011;11691;51.462;6.902;2023-03-01T11:16:57;8.15;;;5.10;;
23046;SDS011;11691;51.462;6.902;2023-03-01T11:19:36;9.05;;;5.15;;
23046;SDS011;11691;51.462;6.902;2023-03-01T11:22:18;6.55;;;5.00;;
23046;SDS011;11691;51.462;6.902;2023-03-01T11:24:48;8.73;;;5.18;;
23046;SDS011;11691;51.462;6.902;2023-03-01T11:27:24;7.63;;;5.13;;
23046;SDS011;11691;51.462;6.902;2023-03-01T11:29:52;8.52;;;4.80;;
23046;SDS011;11691;51.462;6.902;2023-03-01T11:32:20;8.38;;;4.38;;
23046;SDS011;11691;51.462;6.902;2023-03-01T11:34:53;6.72;;;4.88;;
23046;SDS011;11691;51.462;6.902;2023-03-01T11:37:29;11.10;;;4.45;;
23046;SDS011;11691;51.462;6.902;2023-03-01T11:40:23;6.68;;;4.40;;
23046;SDS011;11691;51.462;6.902;2023-03-01T11:50:51;8.70;;;5.03;;
23046;SDS011;11691;51.462;6.902;2023-03-01T11:53:23;6.68;;;4.57;;
23046;SDS011;11691;51.462;6.902;2023-03-01T11:58:56;10.30;;;5.20;;
23046;SDS011;11691;51.462;6.902;2023-03-01T12:10:26;7.03;;;4.35;;
23046;SDS011;11691;51.462;6.902;2023-03-01T12:12:57;8.70;;;4.40;;
23046;SDS011;11691;51.462;6.902;2023-03-01T12:32:29;7.47;;;4.65;;
23046;SDS011;11691;51.462;6.902;2023-03-01T12:46:10;8.35;;;5.18;;
23046;SDS011;11691;51.462;6.902;2023-03-01T12:51:50;6.35;;;4.60;;
23046;SDS011;11691;51.462;6.902;2023-03-01T12:54:36;8.77;;;5.30;;
23046;SDS011;11691;51.462;6.902;2023-03-01T12:57:03;7.20;;;4.70;;
23046;SDS011;11691;51.462;6.902;2023-03-01T13:07:41;6.65;;;4.80;;
23046;SDS011;11691;51.462;6.902;2023-03-01T13:13:01;11.43;;;5.10;;
23046;SDS011;11691;51.462;6.902;2023-03-01T13:15:29;7.22;;;4.90;;
23046;SDS011;11691;51.462;6.902;2023-03-01T13:17:59;8.55;;;5.20;;
23046;SDS011;11691;51.462;6.902;2023-03-01T13:20:33;6.45;;;4.40;;
23046;SDS011;11691;51.462;6.902;2023-03-01T13:31:09;8.93;;;5.32;;
23046;SDS011;11691;51.462;6.902;2023-03-01T13:33:56;9.25;;;5.55;;
23046;SDS011;11691;51.462;6.902;2023-03-01T13:38:58;10.35;;;5.30;;
23046;SDS011;11691;51.462;6.902;2023-03-01T13:44:13;8.02;;;5.35;;
23046;SDS011;11691;51.462;6.902;2023-03-01T13:46:46;7.57;;;5.03;;
23046;SDS011;11691;51.462;6.902;2023-03-01T13:49:14;8.60;;;5.30;;
23046;SDS011;11691;51.462;6.902;2023-03-01T13:51:40;12.00;;;5.43;;
23046;SDS011;11691;51.462;6.902;2023-03-01T13:54:09;8.43;;;5.30;;
23046;SDS011;11691;51.462;6.902;2023-03-01T13:56:37;10.05;;;5.55;;
23046;SDS011;11691;51.462;6.902;2023-03-01T13:59:12;11.32;;;5.45;;
23046;SDS011;11691;51.462;6.902;2023-03-01T14:01:43;9.65;;;5.68;;
23046;SDS011;11691;51.462;6.902;2023-03-01T14:04:20;8.70;;;5.05;;
23046;SDS011;11691;51.462;6.902;2023-03-01T14:06:48;8.88;;;5.22;;
23046;SDS011;11691;51.462;6.902;2023-03-01T14:09:16;9.32;;;5.72;;
23046;SDS011;11691;51.462;6.902;2023-03-01T14:17:27;9.70;;;5.45;;
23046;SDS011;11691;51.462;6.902;2023-03-01T14:20:00;8.48;;;5.97;;
23046;SDS011;11691;51.462;6.902;2023-03-01T14:22:30;7.67;;;5.33;;
23046;SDS011;11691;51.462;6.902;2023-03-01T14:25:00;13.90;;;5.90;;
23046;SDS011;11691;51.462;6.902;2023-03-01T14:27:28;9.33;;;5.97;;
23046;SDS011;11691;51.462;6.902;2023-03-01T14:30:00;9.17;;;5.93;;
23046;SDS011;11691;51.462;6.902;2023-03-01T14:32:27;9.73;;;6.00;;
23046;SDS011;11691;51.462;6.902;2023-03-01T14:34:53;10.07;;;5.67;;
23046;SDS011;11691;51.462;6.902;2023-03-01T14:40:00;9.30;;;6.00;;
23046;SDS011;11691;51.462;6.902;2023-03-01T14:42:28;9.43;;;5.97;;
23046;SDS011;11691;51.462;6.902;2023-03-01T14:44:59;14.13;;;6.40;;
23046;SDS011;11691;51.462;6.902;2023-03-01T14:47:27;9.57;;;6.03;;
23046;SDS011;11691;51.462;6.902;2023-03-01T14:49:57;11.37;;;6.47;;
23046;SDS011;11691;51.462;6.902;2023-03-01T14:52:39;10.90;;;6.53;;
23046;SDS011;11691;51.462;6.902;2023-03-01T14:55:13;11.30;;;6.63;;
23046;SDS011;11691;51.462;6.902;2023-03-01T14:57:45;10.87;;;6.47;;
23046;SDS011;11691;51.462;6.902;2023-03-01T15:00:29;14.43;;;6.80;;
23046;SDS011;11691;51.462;6.902;2023-03-01T15:02:56;11.43;;;6.70;;
23046;SDS011;11691;51.462;6.902;2023-03-01T15:05:26;9.53;;;5.83;;
23046;SDS011;11691;51.462;6.902;2023-03-01T15:07:53;12.43;;;6.60;;
23046;SDS011;11691;51.462;6.902;2023-03-01T15:10:23;8.80;;;5.93;;
23046;SDS011;11691;51.462;6.902;2023-03-01T15:12:50;12.77;;;5.80;;
23046;SDS011;11691;51.462;6.902;2023-03-01T15:17:57;11.43;;;6.57;;
23046;SDS011;11691;51.462;6.902;2023-03-01T15:20:24;9.70;;;6.17;;
23046;SDS011;11691;51.462;6.902;2023-03-01T15:22:53;8.23;;;5.70;;
23046;SDS011;11691;51.462;6.902;2023-03-01T15:25:19;11.33;;;6.27;;
23046;SDS011;11691;51.462;6.902;2023-03-01T15:27:48;10.67;;;5.63;;
23046;SDS011;11691;51.462;6.902;2023-03-01T15:33:15;9.50;;;5.80;;
23046;SDS011;11691;51.462;6.902;2023-03-01T15:36:03;9.20;;;5.70;;
23046;SDS011;11691;51.462;6.902;2023-03-01T15:38:55;10.70;;;6.23;;
23046;SDS011;11691;51.462;6.902;2023-03-01T15:41:30;10.90;;;5.80;;
23046;SDS011;11691;51.462;6.902;2023-03-01T15:43:57;8.90;;;5.57;;
23046;SDS011;11691;51.462;6.902;2023-03-01T15:46:26;12.03;;;6.30;;
23046;SDS011;11691;51.462;6.902;2023-03-01T15:48:54;10.33;;;5.97;;
23046;SDS011;11691;51.462;6.902;2023-03-01T15:51:31;10.67;;;5.90;;
23046;SDS011;11691;51.462;6.902;2023-03-01T15:54:03;11.33;;;5.90;;
23046;SDS011;11691;51.462;6.902;2023-03-01T15:56:38;8.40;;;5.97;;
23046;SDS011;11691;51.462;6.902;2023-03-01T15:59:04;9.33;;;5.93;;
23046;SDS011;11691;51.462;6.902;2023-03-01T16:01:32;10.10;;;5.47;;
23046;SDS011;11691;51.462;6.902;2023-03-01T16:03:59;11.27;;;5.67;;
23046;SDS011;11691;51.462;6.902;2023-03-01T16:06:25;8.73;;;5.53;;
23046;SDS011;11691;51.462;6.902;2023-03-01T16:08:51;10.67;;;5.63;;
23046;SDS011;11691;51.462;6.902;2023-03-01T16:11:18;10.50;;;5.53;;
23046;SDS011;11691;51.462;6.902;2023-03-01T16:13:45;8.73;;;5.07;;
23046;SDS011;11691;51.462;6.902;2023-03-01T16:16:11;7.83;;;5.03;;
23046;SDS011;11691;51.462;6.902;2023-03-01T16:18:40;8.57;;;5.20;;
23046;SDS011;11691;51.462;6.902;2023-03-01T16:21:06;10.20;;;4.87;;
23046;SDS011;11691;51.462;6.902;2023-03-01T16:23:32;9.97;;;5.70;;
23046;SDS011;11691;51.462;6.902;2023-03-01T16:25:59;8.30;;;4.87;;
23046;SDS011;11691;51.462;6.902;2023-03-01T16:28:25;9.97;;;5.30;;
23046;SDS011;11691;51.462;6.902;2023-03-01T16:30:51;9.17;;;4.90;;
23046;SDS011;11691;51.462;6.902;2023-03-01T16:33:17;10.00;;;5.87;;
23046;SDS011;11691;51.462;6.902;2023-03-01T16:35:43;8.40;;;5.67;;
23046;SDS011;11691;51.462;6.902;2023-03-01T16:38:10;8.17;;;5.07;;
23046;SDS011;11691;51.462;6.902;2023-03-01T16:40:36;9.97;;;5.60;;
23046;SDS011;11691;51.462;6.902;2023-03-01T16:43:02;8.40;;;5.30;;
23046;SDS011;11691;51.462;6.902;2023-03-01T16:45:32;12.83;;;5.13;;
23046;SDS011;11691;51.462;6.902;2023-03-01T16:48:00;11.27;;;5.70;;
23046;SDS011;11691;51.462;6.902;2023-03-01T16:50:26;10.50;;;5.87;;
23046;SDS011;11691;51.462;6.902;2023-03-01T16:52:52;9.33;;;5.07;;
23046;SDS011;11691;51.462;6.902;2023-03-01T16:55:18;8.90;;;5.77;;